Turtle Lake, Minnesota
Current Conditions -  °F | °C
As of 10:15 AM on Saturday 22 Nov 2014 (Local Time) from KY49 Reporting Station
Clear Clear  
Wind Chill: 32°   Ceiling: Unl
Heat Index: 32°   Visibility: 10mi
Dew Point: 26°   Wind: 0mph
Humidity: 78%   Direction: NA
Pressure: 29.61"   Gusts: NA
Location:  47.0507°N, 94.6083°W
Report Text: KY49 221615Z AUTO 00000KT 10SM CLR 00/M03 A2961 RMK AO2 T00011033
Loading
Personal Weather Stations






























Interactive Weather Map New forecast layout! Learn more

10-Day Weather Forecast

Advertisements
Track Severe Weather on mobile